ADDS METAR Data INFO
IDs: Format: Raw Decoded Include TAF

Data at: 2146 UTC 15 Dec 2017

KMEZ 152135Z AUTO 30005KT 10SM CLR 11/00 A3016 RMK AO2
KMEZ 152115Z AUTO 00000KT 10SM CLR 11/00 A3017 RMK AO2
KMEZ 152055Z AUTO 31005KT 10SM CLR 12/00 A3017 RMK AO2
KMEZ 152035Z AUTO 29007KT 10SM CLR 12/00 A3017 RMK AO2 TSNO
KMEZ 152015Z AUTO 31007KT 10SM CLR 12/M01 A3017 RMK AO2
KMEZ 151955Z AUTO 28007KT 10SM CLR 12/M01 A3018 RMK AO2
KMEZ 151935Z AUTO 29009KT 10SM CLR 12/M01 A3018 RMK AO2
KMEZ 151915Z AUTO 27003KT 10SM SCT042 11/00 A3019 RMK AO2
KMEZ 151855Z AUTO 27006KT 10SM SCT040 11/00 A3019 RMK AO2
KMEZ 151835Z AUTO 25006KT 10SM SCT038 11/00 A3019 RMK AO2
KMEZ 151815Z AUTO 32005KT 10SM CLR 11/00 A3020 RMK AO2
KMEZ 151755Z AUTO 00000KT 10SM CLR 10/00 A3021 RMK AO2
KMEZ 151735Z AUTO 23003KT 10SM CLR 10/00 A3022 RMK AO2
KMEZ 151715Z AUTO 28005KT 10SM CLR 09/00 A3023 RMK AO2
KMEZ 151655Z AUTO 00000KT 10SM CLR 08/00 A3024 RMK AO2
KMEZ 151635Z AUTO 28003KT 10SM CLR 07/00 A3024 RMK AO2
KMEZ 151615Z AUTO 26007KT 10SM CLR 07/00 A3024 RMK AO2
KMEZ 151555Z AUTO 30007KT 10SM CLR 06/00 A3024 RMK AO2
KMEZ 151535Z AUTO 27009KT 10SM CLR 05/00 A3025 RMK AO2
KMEZ 151515Z AUTO 28008KT 10SM SCT049 05/00 A3023 RMK AO2
KMEZ 151455Z AUTO 27003KT 10SM SCT049 02/01 A3023 RMK AO2
KMEZ 151435Z AUTO 24003KT 10SM CLR 00/00 A3023 RMK AO2
KMEZ 151415Z AUTO 00000KT 10SM CLR M02/M02 A3023 RMK AO2
KMEZ 151355Z AUTO 00000KT 10SM CLR M02/M03 A3022 RMK AO2
KMEZ 151335Z AUTO 00000KT 10SM CLR M03/M04 A3022 RMK AO2
KMEZ 151315Z AUTO 00000KT 10SM CLR M04/M05 A3021 RMK AO2
KMEZ 151255Z AUTO 00000KT 10SM CLR M03/M04 A3021 RMK AO2
KMEZ 151235Z AUTO 00000KT 10SM CLR M03/M03 A3020 RMK AO2
KMEZ 151215Z AUTO 00000KT 10SM CLR M02/M03 A3020 RMK AO2
KMEZ 151155Z AUTO 00000KT 10SM CLR M03/M04 A3020 RMK AO2
KMEZ 151135Z AUTO 00000KT 10SM CLR M04/M05 A3020 RMK AO2
KMEZ 151115Z AUTO 00000KT 10SM CLR M02/M02 A3019 RMK AO2
KMEZ 151055Z AUTO 00000KT 10SM CLR M01/M02 A3019 RMK AO2
KMEZ 151035Z AUTO 00000KT 10SM CLR M02/M03 A3018 RMK AO2
KMEZ 151015Z AUTO 00000KT 10SM CLR M01/M02 A3019 RMK AO2 TSNO
KMEZ 150955Z AUTO 00000KT 10SM CLR M03/M04 A3019 RMK AO2
KMEZ 150935Z AUTO 00000KT 10SM CLR M02/M03 A3019 RMK AO2
KMEZ 150915Z AUTO 00000KT 10SM CLR M02/M02 A3018 RMK AO2 TSNO
KMEZ 150855Z AUTO 00000KT 10SM CLR M03/M03 A3018 RMK AO2
KMEZ 150835Z AUTO 00000KT 10SM CLR M02/M03 A3018 RMK AO2
KMEZ 150815Z AUTO 00000KT 10SM CLR M01/M02 A3017 RMK AO2 TSNO
KMEZ 150755Z AUTO 00000KT 10SM CLR M02/M03 A3017 RMK AO2
KMEZ 150735Z AUTO 00000KT 10SM CLR M02/M02 A3017 RMK AO2
KMEZ 150715Z AUTO 00000KT 10SM CLR M02/M02 A3016 RMK AO2
KMEZ 150655Z AUTO 00000KT 10SM CLR M02/M02 A3017 RMK AO2
KMEZ 150635Z AUTO 00000KT 10SM CLR M02/M03 A3018 RMK AO2 TSNO
KMEZ 150615Z AUTO 00000KT 10SM CLR M01/M01 A3018 RMK AO2
KMEZ 150555Z AUTO 00000KT 10SM CLR M01/M02 A3018 RMK AO2
KMEZ 150535Z AUTO 00000KT 10SM CLR M01/M01 A3018 RMK AO2 TSNO
KMEZ 150515Z AUTO 00000KT 10SM CLR M01/M01 A3018 RMK AO2
KMEZ 150455Z AUTO 00000KT 10SM CLR 00/M01 A3018 RMK AO2
KMEZ 150435Z AUTO 00000KT 10SM CLR 00/M01 A3017 RMK AO2
KMEZ 150415Z AUTO 00000KT 10SM CLR 02/M01 A3017 RMK AO2
KMEZ 150355Z AUTO 00000KT 10SM CLR 03/M02 A3017 RMK AO2
KMEZ 150335Z AUTO 00000KT 10SM CLR 04/M02 A3016 RMK AO2 TSNO
KMEZ 150315Z AUTO 00000KT 10SM CLR 05/M02 A3015 RMK AO2
KMEZ 150255Z AUTO 00000KT 10SM CLR 05/M01 A3015 RMK AO2
KMEZ 150235Z AUTO 34004KT 10SM CLR 05/M01 A3015 RMK AO2
KMEZ 150215Z AUTO 00000KT 10SM CLR 05/M01 A3014 RMK AO2
KMEZ 150155Z AUTO 33003KT 10SM CLR 06/M01 A3013 RMK AO2
KMEZ 150135Z AUTO 32005KT 10SM CLR 06/M01 A3012 RMK AO2
KMEZ 150115Z AUTO 33006KT 10SM CLR 07/M01 A3012 RMK AO2
KMEZ 150055Z AUTO 32009KT 10SM CLR 07/M01 A3011 RMK AO2
KMEZ 150035Z AUTO 32006KT 10SM CLR 08/M01 A3011 RMK AO2
KMEZ 150015Z AUTO 32006KT 10SM CLR 08/M01 A3010 RMK AO2
KMEZ 142355Z AUTO 32005KT 10SM CLR 08/M01 A3009 RMK AO2
KMEZ 142335Z AUTO 32005KT 10SM CLR 08/M01 A3008 RMK AO2
KMEZ 142315Z AUTO 32005KT 10SM CLR 09/M01 A3007 RMK AO2
KMEZ 142255Z AUTO 33007KT 10SM CLR 10/M02 A3006 RMK AO2
KMEZ 142235Z AUTO 33009KT 10SM CLR 10/M02 A3006 RMK AO2 TSNO
KMEZ 142215Z AUTO 33007KT 294V354 10SM CLR 11/M01 A3005 RMK AO2
KMEZ 142155Z AUTO 34007KT 10SM CLR 12/M01 A3003 RMK AO2
KMEZ 142135Z AUTO 32008KT 10SM CLR 12/M01 A3003 RMK AO2
KMEZ 142035Z AUTO 33009G14KT 304V024 10SM CLR 13/M02 A3001 RMK AO2
KMEZ 142015Z AUTO 29008G14KT 10SM CLR 14/M02 A3001 RMK AO2
KMEZ 141955Z AUTO 30007KT 10SM CLR 14/M02 A3001 RMK AO2
KMEZ 141935Z AUTO 28009KT 10SM CLR 14/M02 A3001 RMK AO2
KMEZ 141915Z AUTO 28006KT 10SM CLR 13/M02 A3002 RMK AO2
KMEZ 141855Z AUTO 28005KT 10SM CLR 13/M02 A3002 RMK AO2
KMEZ 141835Z AUTO 30004KT 10SM CLR 13/M02 A3003 RMK AO2
KMEZ 141815Z AUTO 33005KT 10SM CLR 13/M02 A3004 RMK AO2
KMEZ 141755Z AUTO 34004KT 10SM CLR 13/M01 A3005 RMK AO2
KMEZ 141735Z AUTO 32004KT 10SM CLR 13/M01 A3006 RMK AO2
KMEZ 141715Z AUTO 02006KT 10SM CLR 12/M01 A3007 RMK AO2
KMEZ 141655Z AUTO 03004KT 10SM CLR 12/00 A3007 RMK AO2
KMEZ 141635Z AUTO 06005KT 10SM CLR 12/00 A3007 RMK AO2
KMEZ 141615Z AUTO 05006KT 10SM CLR 12/00 A3007 RMK AO2
KMEZ 141555Z AUTO 03005KT 10SM CLR 11/00 A3006 RMK AO2
KMEZ 141535Z AUTO 11004KT 10SM CLR 11/00 A3006 RMK AO2
KMEZ 141515Z AUTO 00000KT 10SM CLR 10/00 A3006 RMK AO2
KMEZ 141455Z AUTO 00000KT 10SM CLR 09/00 A3005 RMK AO2
KMEZ 141435Z AUTO 00000KT 10SM CLR 06/01 A3005 RMK AO2
KMEZ 141415Z AUTO 00000KT 10SM CLR 02/01 A3004 RMK AO2 TSNO
KMEZ 141355Z AUTO 00000KT 10SM CLR 01/00 A3003 RMK AO2
KMEZ 141335Z AUTO 00000KT 10SM CLR 01/00 A3002 RMK AO2
KMEZ 141315Z AUTO 00000KT 10SM CLR 00/M01 A3001 RMK AO2
KMEZ 141255Z AUTO 00000KT 10SM CLR 01/M01 A2999 RMK AO2
KMEZ 141235Z AUTO 00000KT 10SM CLR 00/00 A2997 RMK AO2
KMEZ 141215Z AUTO 00000KT 10SM CLR 01/M01 A2996 RMK AO2
KMEZ 141155Z AUTO 00000KT 10SM CLR 01/M01 A2995 RMK AO2
KMEZ 141135Z AUTO 00000KT 10SM CLR 03/M02 A2994 RMK AO2
KMEZ 141115Z AUTO 26003KT 10SM CLR 00/00 A2993 RMK AO2
KMEZ 141055Z AUTO 00000KT 10SM CLR 02/M01 A2992 RMK AO2
KMEZ 141035Z AUTO 00000KT 10SM CLR 02/M01 A2992 RMK AO2 TSNO
KMEZ 141015Z AUTO 00000KT 10SM CLR 07/M02 A2992 RMK AO2
KMEZ 140955Z AUTO 00000KT 10SM CLR 06/M02 A2992 RMK AO2